Time;durP1;ratioP1;P1;durP2;ratioP2;P2;SDS_P1;SDS_P2;PMS_P1;PMS_P2;Temp;Humidity;BMP_temperature;BMP_pressure;BME280_temperature;BME280_humidity;BME280_pressure;Samples;Min_cycle;Max_cycle;Signal;HPM_P1;HPM_P2
2021/03/09 00:01:11;;;;;;;7.28;3.27;;;;;;;-2.83;54.99;100593.63;1697507;83;22372;-65
2021/03/09 00:03:38;;;;;;;8.13;2.67;;;;;;;-2.83;54.81;100594.47;1667939;85;21216;-65
2021/03/09 00:06:06;;;;;;;7.42;2.83;;;;;;;-2.87;54.55;100598.00;1696124;83;21176;-66
2021/03/09 00:08:33;;;;;;;7.92;3.75;;;;;;;-2.89;54.59;100594.62;1699391;83;21160;-65
2021/03/09 00:11:00;;;;;;;9.20;3.17;;;;;;;-2.89;54.75;100600.19;1693794;83;21173;-71
2021/03/09 00:13:28;;;;;;;8.43;2.75;;;;;;;-2.85;54.70;100597.97;1699579;83;21132;-70
2021/03/09 00:15:55;;;;;;;10.80;3.17;;;;;;;-2.77;54.37;100601.23;1698895;83;21161;-65
2021/03/09 00:18:24;;;;;;;5.85;2.05;;;;;;;-2.75;54.40;100606.36;1700977;83;21377;-63
2021/03/09 00:20:53;;;;;;;10.53;2.45;;;;;;;-2.73;54.11;100598.98;1704022;83;21180;-64
2021/03/09 00:23:20;;;;;;;6.42;2.17;;;;;;;-2.72;54.13;100600.69;1699813;83;21172;-64
2021/03/09 00:25:48;;;;;;;5.10;2.15;;;;;;;-2.73;54.14;100605.88;1700882;83;21647;-66
2021/03/09 00:28:20;;;;;;;7.80;2.90;;;;;;;-2.74;53.96;100600.30;1666696;85;21153;-67
2021/03/09 00:30:47;;;;;;;7.12;2.83;;;;;;;-2.73;54.03;100601.56;1675165;83;22073;-66
2021/03/09 00:33:15;;;;;;;8.68;3.00;;;;;;;-2.74;53.98;100603.75;1679530;84;21619;-66
2021/03/09 00:35:42;;;;;;;7.33;2.15;;;;;;;-2.71;53.93;100597.22;1702064;83;21183;-64
2021/03/09 00:38:10;;;;;;;6.08;2.20;;;;;;;-2.62;53.91;100607.78;1700148;83;21646;-68
2021/03/09 00:40:39;;;;;;;5.62;1.85;;;;;;;-2.53;53.76;100603.70;1711008;83;21442;-68
2021/03/09 00:43:06;;;;;;;7.35;2.80;;;;;;;-2.44;53.37;100599.64;1699269;83;22228;-68
2021/03/09 00:45:34;;;;;;;6.80;2.65;;;;;;;-2.31;53.37;100595.48;1702409;83;21184;-66
2021/03/09 00:48:03;;;;;;;5.15;2.35;;;;;;;-2.17;53.07;100598.59;1701216;83;21194;-65
2021/03/09 00:50:30;;;;;;;3.95;1.67;;;;;;;-2.04;52.88;100600.87;1712262;83;21116;-65
2021/03/09 00:52:58;;;;;;;6.12;3.05;;;;;;;-1.96;52.58;100600.23;1682539;83;21528;-67
2021/03/09 00:55:26;;;;;;;7.45;3.15;;;;;;;-1.91;52.28;100600.97;1677905;83;21623;-65
2021/03/09 00:57:58;;;;;;;6.58;2.58;;;;;;;-1.84;51.92;100601.66;1686271;83;21219;-65
2021/03/09 01:00:27;;;;;;;6.12;2.70;;;;;;;-1.78;51.92;100602.78;1669882;83;21190;-66
2021/03/09 01:02:54;;;;;;;7.87;3.33;;;;;;;-1.71;51.88;100600.47;1695371;83;21199;-65
2021/03/09 01:05:23;;;;;;;5.58;2.05;;;;;;;-1.65;51.74;100596.87;1713571;83;21188;-64
2021/03/09 01:07:51;;;;;;;6.45;2.62;;;;;;;-1.63;51.47;100597.67;1637068;86;21948;-64
2021/03/09 01:10:20;;;;;;;6.22;3.10;;;;;;;-1.72;51.47;100606.05;1633838;86;21974;-64
2021/03/09 01:12:47;;;;;;;8.23;2.72;;;;;;;-1.75;51.64;100600.99;1672903;84;21506;-65
2021/03/09 01:15:16;;;;;;;6.15;2.60;;;;;;;-1.71;51.70;100601.30;1687290;84;21480;-65
2021/03/09 01:17:43;;;;;;;5.90;2.20;;;;;;;-1.67;51.50;100603.81;1683241;84;21173;-67
2021/03/09 01:20:12;;;;;;;6.15;2.15;;;;;;;-1.62;51.44;100604.53;1666297;84;21229;-64
2021/03/09 01:22:40;;;;;;;7.45;3.40;;;;;;;-1.58;51.50;100601.84;1694470;84;21829;-66
2021/03/09 01:25:08;;;;;;;6.83;2.52;;;;;;;-1.53;51.27;100608.15;1677995;85;21169;-66
2021/03/09 01:27:36;;;;;;;6.50;2.33;;;;;;;-1.56;51.40;100605.68;1698587;84;21229;-66
2021/03/09 01:30:09;;;;;;;6.00;2.55;;;;;;;-1.55;51.49;100613.80;1671146;84;21523;-67
2021/03/09 01:32:37;;;;;;;4.35;1.82;;;;;;;-1.56;51.51;100609.09;1687310;84;22654;-65
2021/03/09 01:35:07;;;;;;;8.00;2.58;;;;;;;-1.48;51.45;100617.91;1699138;83;21201;-71
2021/03/09 01:37:34;;;;;;;7.22;2.40;;;;;;;-1.44;51.36;100622.57;1705377;83;21168;-65
2021/03/09 01:40:01;;;;;;;4.45;2.17;;;;;;;-1.43;51.24;100619.08;1696125;83;21153;-66
2021/03/09 01:42:28;;;;;;;6.75;2.80;;;;;;;-1.46;51.46;100614.87;1700616;83;21168;-69
2021/03/09 01:44:56;;;;;;;6.55;2.45;;;;;;;-1.51;51.51;100620.14;1665146;83;21181;-65
2021/03/09 01:47:23;;;;;;;6.08;2.27;;;;;;;-1.59;51.64;100613.50;1704983;83;21600;-65
2021/03/09 01:49:51;;;;;;;6.40;1.90;;;;;;;-1.63;51.96;100617.89;1695453;83;21173;-65
2021/03/09 01:52:18;;;;;;;7.75;2.90;;;;;;;-1.61;51.96;100620.44;1695927;83;21191;-64
2021/03/09 01:54:46;;;;;;;6.75;2.60;;;;;;;-1.58;52.01;100614.75;1669211;83;21153;-64
2021/03/09 01:57:13;;;;;;;7.33;2.90;;;;;;;-1.55;51.93;100625.42;1678566;83;21650;-65
2021/03/09 01:59:41;;;;;;;7.95;2.90;;;;;;;-1.55;52.04;100619.80;1691095;83;21149;-65
2021/03/09 02:02:09;;;;;;;7.42;2.27;;;;;;;-1.50;51.95;100619.69;1692076;83;21156;-65
2021/03/09 02:04:37;;;;;;;7.05;2.30;;;;;;;-1.46;51.94;100620.03;1684509;83;21165;-65
2021/03/09 02:07:04;;;;;;;6.80;2.67;;;;;;;-1.43;51.88;100617.80;1702637;83;21622;-65
2021/03/09 02:09:35;;;;;;;4.67;2.25;;;;;;;-1.41;51.85;100621.17;1707035;83;21420;-65
2021/03/09 02:12:30;;;;;;;4.47;1.82;;;;;;;-1.40;51.76;100621.59;1696185;83;21216;-65
2021/03/09 02:15:26;;;;;;;4.25;1.47;;;;;;;-1.35;51.73;100623.15;1699976;83;21160;-65
2021/03/09 02:18:11;;;;;;;5.33;2.17;;;;;;;-1.33;51.79;100625.69;1707241;83;21654;-65
2021/03/09 02:21:30;;;;;;;6.03;1.98;;;;;;;-1.29;51.80;100631.19;1658091;83;21631;-66
2021/03/09 02:24:30;;;;;;;5.53;2.15;;;;;;;-1.31;51.85;100626.52;1664669;83;21228;-66
2021/03/09 02:27:25;;;;;;;6.83;2.33;;;;;;;-1.33;51.98;100636.89;1698704;83;21177;-66
2021/03/09 02:30:16;;;;;;;5.92;2.08;;;;;;;-1.35;51.95;100634.77;1677289;83;21232;-64
2021/03/09 02:32:58;;;;;;;4.33;1.70;;;;;;;-1.34;52.08;100637.77;1708735;83;21125;-64
2021/03/09 02:35:27;;;;;;;4.65;1.62;;;;;;;-1.38;52.03;100636.16;1704500;83;21185;-64
2021/03/09 02:37:57;;;;;;;4.20;1.65;;;;;;;-1.38;52.09;100642.62;1666923;83;21151;-64
2021/03/09 02:40:25;;;;;;;7.42;2.05;;;;;;;-1.40;52.28;100644.82;1675227;83;21266;-66
2021/03/09 02:43:05;;;;;;;5.30;1.62;;;;;;;-1.42;52.36;100642.28;1693463;83;21168;-65
2021/03/09 02:45:33;;;;;;;5.15;2.08;;;;;;;-1.35;52.27;100645.09;1677903;83;21212;-66
2021/03/09 02:48:00;;;;;;;4.25;1.50;;;;;;;-1.33;52.28;100645.92;1676388;84;21216;-64
2021/03/09 02:50:29;;;;;;;5.70;2.00;;;;;;;-1.31;52.25;100645.88;1686776;83;21624;-67
2021/03/09 02:53:06;;;;;;;5.00;1.80;;;;;;;-1.37;52.33;100648.16;1685831;83;21176;-64
2021/03/09 02:55:36;;;;;;;4.97;1.77;;;;;;;-1.36;52.59;100652.45;1680740;85;21195;-64
2021/03/09 02:58:09;;;;;;;3.92;1.67;;;;;;;-1.28;52.56;100651.39;1697123;83;21600;-66
2021/03/09 03:00:37;;;;;;;4.55;1.40;;;;;;;-1.20;52.40;100655.91;1683061;83;21200;-64
2021/03/09 03:03:08;;;;;;;4.58;1.75;;;;;;;-1.18;52.37;100660.16;1683190;83;21237;-64
2021/03/09 03:05:37;;;;;;;6.65;1.75;;;;;;;-1.16;52.25;100663.96;1683965;83;21623;-64
2021/03/09 03:08:08;;;;;;;4.33;1.52;;;;;;;-1.16;52.25;100667.84;1673255;83;21212;-70
2021/03/09 03:10:53;;;;;;;6.15;1.80;;;;;;;-1.18;52.34;100664.03;1824627;76;22746;-63
2021/03/09 03:13:22;;;;;;;4.67;1.80;;;;;;;-1.23;52.55;100667.16;1764209;79;21555;-62
2021/03/09 03:15:52;;;;;;;6.15;2.08;;;;;;;-1.23;52.56;100672.31;1802130;77;21200;-62
2021/03/09 03:18:20;;;;;;;4.35;1.67;;;;;;;-1.27;52.45;100676.34;1798398;79;21726;-62
2021/03/09 03:20:48;;;;;;;6.37;1.55;;;;;;;-1.32;52.60;100676.45;1757949;79;21166;-62
2021/03/09 03:23:16;;;;;;;3.58;1.22;;;;;;;-1.32;52.68;100679.87;1793228;78;21243;-62
2021/03/09 03:25:47;;;;;;;5.67;1.82;;;;;;;-1.29;52.73;100674.22;1794801;77;21586;-62
2021/03/09 03:28:15;;;;;;;7.42;1.92;;;;;;;-1.27;52.75;100681.50;1767258;79;21189;-63
2021/03/09 03:30:42;;;;;;;8.58;2.20;;;;;;;-1.26;52.71;100678.02;1806049;79;21585;-62
2021/03/09 03:33:10;;;;;;;4.85;1.92;;;;;;;-1.15;52.61;100683.75;1795665;79;21140;-62
2021/03/09 03:35:37;;;;;;;4.37;1.80;;;;;;;-1.06;52.26;100688.68;1758164;79;21192;-62
2021/03/09 03:38:06;;;;;;;5.70;2.00;;;;;;;-1.02;51.86;100683.82;1798079;78;21152;-63
2021/03/09 03:40:33;;;;;;;8.68;1.95;;;;;;;-0.97;51.95;100683.70;1779111;79;21397;-63
2021/03/09 03:43:01;;;;;;;4.37;1.87;;;;;;;-0.97;51.52;100684.54;1766076;78;21619;-63
2021/03/09 03:45:29;;;;;;;12.60;5.45;;;;;;;-0.97;51.48;100688.87;1801925;79;21147;-63
2021/03/09 03:47:58;;;;;;;8.00;3.45;;;;;;;-1.00;51.67;100693.66;1807273;79;21627;-63
2021/03/09 03:50:26;;;;;;;6.70;2.65;;;;;;;-1.02;51.72;100690.73;1782693;79;21183;-63
2021/03/09 03:53:05;;;;;;;5.47;2.12;;;;;;;-1.03;51.87;100695.03;1809746;79;21467;-63
2021/03/09 03:55:56;;;;;;;5.00;2.05;;;;;;;-1.00;51.77;100701.41;1804015;79;21142;-62
2021/03/09 03:58:51;;;;;;;4.97;2.02;;;;;;;-0.96;51.46;100695.28;1828310;76;22697;-62
2021/03/09 04:01:20;;;;;;;6.92;2.00;;;;;;;-0.95;51.63;100702.13;1790954;79;21139;-63
2021/03/09 04:03:50;;;;;;;6.30;2.37;;;;;;;-0.90;51.39;100701.17;1770754;80;22211;-63
2021/03/09 04:06:18;;;;;;;4.53;1.80;;;;;;;-0.84;51.35;100699.27;1797792;77;21223;-63
2021/03/09 04:08:46;;;;;;;5.92;2.50;;;;;;;-0.78;51.33;100704.70;1797400;79;21616;-62
2021/03/09 04:11:14;;;;;;;7.28;3.58;;;;;;;-0.75;51.05;100709.79;1791704;79;21191;-64
2021/03/09 04:13:43;;;;;;;5.87;1.95;;;;;;;-0.73;50.90;100710.59;1766251;80;21195;-65
2021/03/09 04:16:12;;;;;;;7.25;2.67;;;;;;;-0.70;50.82;100719.55;1799775;79;21871;-64
2021/03/09 04:18:41;;;;;;;6.50;2.12;;;;;;;-0.68;50.85;100716.92;1796503;79;21001;-63
2021/03/09 04:21:10;;;;;;;5.00;1.90;;;;;;;-0.66;50.57;100712.09;1789317;79;21146;-62
2021/03/09 04:23:37;;;;;;;5.40;2.02;;;;;;;-0.67;50.09;100718.17;1783048;79;21112;-62
2021/03/09 04:26:05;;;;;;;5.95;2.58;;;;;;;-0.74;50.02;100717.92;1810054;79;21137;-68
2021/03/09 04:28:33;;;;;;;6.97;2.72;;;;;;;-0.81;49.84;100721.16;1779337;79;21937;-65
2021/03/09 04:31:00;;;;;;;7.40;2.35;;;;;;;-0.85;50.11;100722.11;1788164;79;21195;-64
2021/03/09 04:33:29;;;;;;;4.33;1.67;;;;;;;-0.90;49.54;100717.97;1773814;79;21172;-64
2021/03/09 04:35:58;;;;;;;5.12;1.90;;;;;;;-1.00;49.45;100722.08;1751023;79;21675;-61
2021/03/09 04:38:25;;;;;;;6.05;2.00;;;;;;;-1.04;49.55;100729.94;1775387;78;21217;-61
2021/03/09 04:40:55;;;;;;;7.33;1.90;;;;;;;-1.07;49.74;100737.80;1793488;77;21247;-68
2021/03/09 04:43:24;;;;;;;4.92;2.15;;;;;;;-1.09;49.54;100740.83;1787033;79;21191;-62
2021/03/09 04:45:51;;;;;;;7.10;2.22;;;;;;;-1.11;49.71;100733.13;1763675;79;21163;-62
2021/03/09 04:48:19;;;;;;;4.53;1.60;;;;;;;-1.12;49.53;100743.91;1790735;79;21167;-62
2021/03/09 04:50:48;;;;;;;5.05;1.75;;;;;;;-1.13;49.69;100740.94;1787866;77;21157;-65
2021/03/09 04:53:18;;;;;;;5.53;2.22;;;;;;;-1.12;49.42;100739.20;1793284;79;21189;-66
2021/03/09 04:55:46;;;;;;;6.50;2.33;;;;;;;-1.12;49.45;100738.74;1792962;77;21881;-66
2021/03/09 04:58:14;;;;;;;4.62;1.80;;;;;;;-1.09;49.43;100754.61;1787806;77;21155;-64
2021/03/09 05:00:42;;;;;;;5.00;1.75;;;;;;;-1.07;49.56;100757.16;1790388;77;21614;-65
2021/03/09 05:03:11;;;;;;;4.78;1.60;;;;;;;-1.06;49.79;100759.70;1792524;77;21203;-65
2021/03/09 05:05:39;;;;;;;4.00;1.55;;;;;;;-1.03;50.18;100766.06;1790487;78;21403;-63
2021/03/09 05:08:06;;;;;;;4.95;2.10;;;;;;;-0.99;50.98;100767.69;1794339;77;21195;-62
2021/03/09 05:10:33;;;;;;;6.03;2.50;;;;;;;-0.97;51.42;100767.66;1712997;80;21187;-61
2021/03/09 05:13:01;;;;;;;4.75;2.27;;;;;;;-1.01;51.98;100768.61;1734389;79;21230;-61
2021/03/09 05:15:28;;;;;;;6.05;2.20;;;;;;;-1.04;52.25;100766.97;1782695;79;21222;-61
2021/03/09 05:17:56;;;;;;;4.45;1.92;;;;;;;-1.00;52.47;100765.98;1790382;79;21326;-61
2021/03/09 05:20:25;;;;;;;4.92;2.00;;;;;;;-0.97;52.37;100767.20;1792729;77;21235;-62
2021/03/09 05:22:53;;;;;;;5.53;1.90;;;;;;;-0.92;52.28;100775.27;1783381;79;21611;-61
2021/03/09 05:25:20;;;;;;;3.80;1.45;;;;;;;-0.92;52.44;100773.97;1790687;77;21198;-62
2021/03/09 05:27:48;;;;;;;4.55;1.87;;;;;;;-0.89;52.62;100781.64;1797055;77;21155;-61
2021/03/09 05:30:18;;;;;;;5.80;2.02;;;;;;;-0.86;52.51;100786.28;1773540;77;21199;-65
2021/03/09 05:32:46;;;;;;;4.03;1.50;;;;;;;-0.86;52.44;100791.45;1796301;77;21152;-62
2021/03/09 05:35:15;;;;;;;5.05;1.67;;;;;;;-0.83;52.44;100790.54;1795465;77;21164;-62
2021/03/09 05:37:43;;;;;;;4.08;1.72;;;;;;;-0.83;52.32;100798.29;1780327;77;21187;-62
2021/03/09 05:40:12;;;;;;;4.97;1.85;;;;;;;-0.79;52.36;100797.30;1730897;82;21190;-62
2021/03/09 05:42:40;;;;;;;4.37;1.92;;;;;;;-0.70;52.18;100803.54;1715036;81;21223;-64
2021/03/09 05:45:10;;;;;;;4.62;1.62;;;;;;;-0.67;51.93;100803.47;1795340;79;21179;-60
2021/03/09 05:47:39;;;;;;;6.35;2.02;;;;;;;-0.61;51.88;100808.45;1799064;79;21191;-62
2021/03/09 05:50:08;;;;;;;4.70;2.22;;;;;;;-0.62;52.45;100809.36;1798854;77;22306;-60
2021/03/09 05:52:37;;;;;;;7.75;2.85;;;;;;;-0.61;53.25;100817.95;1734625;81;21506;-61
2021/03/09 05:55:07;;;;;;;6.03;2.42;;;;;;;-0.61;53.66;100817.50;1743115;79;21314;-61
2021/03/09 05:57:34;;;;;;;7.30;2.67;;;;;;;-0.60;53.86;100824.38;1744057;80;21268;-60
2021/03/09 06:00:06;;;;;;;5.30;1.98;;;;;;;-0.57;53.94;100828.17;1716033;81;21261;-60
2021/03/09 06:02:41;;;;;;;5.50;1.85;;;;;;;-0.52;52.65;100833.23;1744016;80;21124;-60
2021/03/09 06:05:11;;;;;;;7.00;2.33;;;;;;;-0.50;51.57;100831.89;1741341;80;21209;-59
2021/03/09 06:07:39;;;;;;;15.60;2.45;;;;;;;-0.45;51.38;100841.21;1746101;81;21343;-72
2021/03/09 06:10:17;;;;;;;31.35;18.35;;;;;;;-0.43;50.36;100840.72;1731542;81;21201;-60
2021/03/09 06:12:46;;;;;;;16.27;8.78;;;;;;;-0.34;50.91;100847.83;1782861;80;21183;-59
2021/03/09 06:15:14;;;;;;;13.48;6.45;;;;;;;-0.25;50.38;100842.42;1769851;80;21212;-60
2021/03/09 06:17:43;;;;;;;8.05;2.95;;;;;;;-0.21;50.06;100857.78;1781411;78;21628;-60
2021/03/09 06:20:21;;;;;;;5.75;2.50;;;;;;;-0.15;49.10;100860.66;1781190;80;21207;-59
2021/03/09 06:23:00;;;;;;;8.68;3.42;;;;;;;-0.26;51.33;100861.40;1784463;78;21215;-59
2021/03/09 06:25:37;;;;;;;8.38;2.60;;;;;;;-0.40;52.17;100869.08;1773533;78;21215;-59
2021/03/09 06:28:05;;;;;;;6.17;2.75;;;;;;;-0.47;53.31;100875.31;1776570;78;21187;-60
2021/03/09 06:30:35;;;;;;;7.12;3.40;;;;;;;-0.52;53.99;100878.89;1777035;80;21135;-61
2021/03/09 06:33:05;;;;;;;6.40;2.90;;;;;;;-0.57;54.61;100879.03;1761670;80;21395;-60
2021/03/09 06:35:46;;;;;;;6.62;3.10;;;;;;;-0.68;55.08;100881.88;1770921;80;21670;-60
2021/03/09 06:38:30;;;;;;;6.83;2.95;;;;;;;-0.75;55.64;100888.09;1764249;80;21603;-60
2021/03/09 06:41:15;;;;;;;7.17;3.00;;;;;;;-0.79;56.14;100891.63;1772782;80;21243;-60
2021/03/09 06:44:00;;;;;;;9.28;3.40;;;;;;;-0.84;56.31;100889.17;1772590;80;21175;-60
2021/03/09 06:46:30;;;;;;;7.53;2.00;;;;;;;-0.84;56.22;100888.30;1753707;78;21225;-61
2021/03/09 06:49:01;;;;;;;4.78;1.80;;;;;;;-0.86;54.63;100890.92;1758226;78;21888;-67
2021/03/09 06:51:36;;;;;;;7.22;1.98;;;;;;;-0.92;54.29;100896.69;1760410;79;21650;-62
2021/03/09 06:54:11;;;;;;;6.28;2.80;;;;;;;-0.92;53.52;100904.02;1773169;78;21176;-62
2021/03/09 06:56:42;;;;;;;7.20;2.05;;;;;;;-0.92;52.45;100904.44;1764646;79;21239;-60
2021/03/09 06:59:26;;;;;;;8.23;3.40;;;;;;;-0.94;52.66;100907.92;1781476;79;21563;-59
2021/03/09 07:02:09;;;;;;;7.45;3.72;;;;;;;-0.96;53.19;100908.41;1773523;79;21196;-62
2021/03/09 07:04:41;;;;;;;7.17;2.90;;;;;;;-1.02;53.14;100905.96;1785206;78;21124;-62
2021/03/09 07:07:11;;;;;;;7.05;2.62;;;;;;;-1.07;54.50;100919.42;1799576;79;21112;-64
2021/03/09 07:12:21;;;;;;;5.62;2.40;;;;;;;-1.23;55.96;100914.20;1859755;76;22753;-63
2021/03/09 07:14:50;;;;;;;10.85;2.47;;;;;;;-1.24;55.77;100928.02;1806683;77;21119;-62
2021/03/09 07:17:21;;;;;;;7.35;2.72;;;;;;;-1.28;56.22;100925.08;1832126;77;21188;-62
2021/03/09 07:19:49;;;;;;;8.23;3.55;;;;;;;-1.32;56.14;100917.84;1769101;79;20993;-61
2021/03/09 07:22:19;;;;;;;7.25;2.95;;;;;;;-1.31;55.57;100919.55;1738523;79;21653;-62
2021/03/09 07:25:16;;;;;;;8.10;2.60;;;;;;;-1.34;55.34;100921.75;1763539;80;21175;-62
2021/03/09 07:27:58;;;;;;;12.65;2.80;;;;;;;-1.33;55.08;100933.78;1768559;79;21221;-61
2021/03/09 07:30:28;;;;;;;6.50;2.25;;;;;;;-1.31;54.26;100925.56;1771516;79;22468;-59
2021/03/09 07:32:57;;;;;;;11.85;2.72;;;;;;;-1.33;54.36;100923.88;1796256;79;21160;-60
2021/03/09 07:35:30;;;;;;;8.08;2.90;;;;;;;-1.29;54.63;100934.56;1793569;79;21182;-61
2021/03/09 07:37:59;;;;;;;10.45;3.42;;;;;;;-1.26;54.27;100930.62;1777176;78;21140;-62
2021/03/09 07:40:30;;;;;;;5.42;3.40;;;;;;;-1.21;53.25;100930.08;1776042;80;21170;-62
2021/03/09 07:42:59;;;;;;;6.83;2.30;;;;;;;-1.17;53.46;100923.11;1774649;78;21439;-61
2021/03/09 07:45:35;;;;;;;6.60;2.90;;;;;;;-1.15;52.97;100932.50;1754933;80;21159;-61
2021/03/09 07:48:10;;;;;;;7.17;2.58;;;;;;;-1.19;53.38;100936.05;1788659;78;21180;-61
2021/03/09 07:50:43;;;;;;;7.63;2.07;;;;;;;-1.20;52.85;100932.21;1766446;80;21189;-62
2021/03/09 07:53:17;;;;;;;4.47;1.98;;;;;;;-1.23;53.62;100938.28;1801496;78;21142;-61
2021/03/09 07:55:46;;;;;;;4.45;1.87;;;;;;;-1.25;54.07;100945.67;1789577;79;22583;-62
2021/03/09 07:58:22;;;;;;;5.50;2.47;;;;;;;-1.25;54.56;100945.67;1807966;78;21184;-63
2021/03/09 08:00:51;;;;;;;;;;;;;;;-1.24;55.62;100940.92;1791071;79;21722;-63
2021/03/09 08:03:25;;;;;;;6.03;1.85;;;;;;;-1.20;57.46;100943.83;1811540;78;20276;-60
2021/03/09 08:05:56;;;;;;;6.58;2.30;;;;;;;-1.24;57.92;100943.51;1778366;79;21185;-62
2021/03/09 08:09:11;;;;;;;6.20;2.02;;;;;;;-1.21;57.98;100942.99;1784596;79;22248;-62
2021/03/09 08:11:38;;;;;;;9.83;3.35;;;;;;;-1.07;58.10;100943.97;1783951;79;21218;-61
2021/03/09 08:14:11;;;;;;;4.42;1.90;;;;;;;-0.85;56.96;100939.14;1786954;78;21184;-62
2021/03/09 08:16:47;;;;;;;5.70;1.95;;;;;;;-0.71;55.36;100936.67;1778228;79;21197;-62
2021/03/09 08:19:30;;;;;;;6.70;2.85;;;;;;;-0.62;55.08;100933.88;1784606;79;21648;-62
2021/03/09 08:22:02;;;;;;;7.78;3.33;;;;;;;-0.53;54.80;100934.08;1759785;79;21158;-61
2021/03/09 08:24:47;;;;;;;10.08;2.67;;;;;;;-0.45;54.22;100932.16;1756221;80;21197;-61
2021/03/09 08:27:38;;;;;;;5.62;2.12;;;;;;;-0.36;54.06;100930.61;1784066;78;21195;-60
2021/03/09 08:30:22;;;;;;;5.45;2.47;;;;;;;-0.23;51.42;100931.98;1758772;78;21212;-62
2021/03/09 08:32:50;;;;;;;5.67;2.45;;;;;;;-0.23;51.24;100929.41;1781121;78;21234;-61
2021/03/09 08:35:29;;;;;;;6.65;2.98;;;;;;;-0.08;51.39;100929.90;1758154;80;21976;-60
2021/03/09 08:38:01;;;;;;;5.60;2.33;;;;;;;0.07;50.46;100937.66;1727813;81;21226;-60
2021/03/09 08:40:28;;;;;;;5.00;2.10;;;;;;;0.09;50.07;100933.31;1685932;81;21127;-59
2021/03/09 08:43:07;;;;;;;5.95;2.80;;;;;;;0.07;49.76;100937.23;1761774;78;21210;-63
2021/03/09 08:45:57;;;;;;;7.92;3.45;;;;;;;-0.05;49.14;100932.37;1779988;78;21179;-62
2021/03/09 08:48:47;;;;;;;6.37;2.90;;;;;;;-0.20;49.06;100931.91;1780325;79;21211;-61
2021/03/09 08:51:41;;;;;;;7.85;2.83;;;;;;;-0.28;49.77;100933.84;1752283;80;21236;-63
2021/03/09 08:54:26;;;;;;;9.73;3.58;;;;;;;-0.37;49.86;100931.48;1749785;81;21181;-60
2021/03/09 08:56:55;;;;;;;6.47;2.95;;;;;;;-0.41;50.18;100938.48;1748344;79;21179;-59
2021/03/09 08:59:28;;;;;;;6.22;2.37;;;;;;;-0.41;49.35;100938.94;1795754;78;21227;-62
2021/03/09 09:02:18;;;;;;;6.00;2.85;;;;;;;-0.43;49.96;100943.30;1730650;81;21225;-63
2021/03/09 09:04:57;;;;;;;6.05;2.47;;;;;;;-0.36;50.41;100937.53;1755650;80;21591;-59
2021/03/09 09:07:36;;;;;;;7.10;3.20;;;;;;;-0.36;50.22;100944.00;1727262;81;21199;-61
2021/03/09 09:10:22;;;;;;;8.35;3.05;;;;;;;-0.32;50.11;100941.30;1781055;78;21216;-62
2021/03/09 09:12:52;;;;;;;17.80;4.10;;;;;;;-0.34;50.66;100944.34;1724588;81;21128;-64
2021/03/09 09:15:29;;;;;;;9.70;3.80;;;;;;;-0.50;53.53;100949.07;1749155;80;22267;-62
2021/03/09 09:18:07;;;;;;;13.45;3.95;;;;;;;-0.70;54.32;100956.02;1747652;80;21217;-63
2021/03/09 09:20:40;;;;;;;10.35;3.42;;;;;;;-0.93;54.37;100956.55;1743045;80;21207;-62
2021/03/09 09:23:11;;;;;;;7.25;3.10;;;;;;;-1.07;54.45;100967.21;1748320;80;21224;-62
2021/03/09 09:25:43;;;;;;;8.80;3.30;;;;;;;-1.10;53.77;100964.69;1752486;81;21680;-64
2021/03/09 09:28:30;;;;;;;7.20;2.95;;;;;;;-1.09;53.97;100972.86;1742719;81;21190;-62
2021/03/09 09:31:02;;;;;;;12.70;2.98;;;;;;;-1.03;54.06;100970.57;1750820;80;21247;-62
2021/03/09 09:33:33;;;;;;;7.58;2.60;;;;;;;-1.02;53.87;100969.25;1726892;81;21175;-62
2021/03/09 09:36:01;;;;;;;5.92;2.35;;;;;;;-1.00;53.04;100976.97;1727907;81;21235;-61
2021/03/09 09:38:28;;;;;;;6.08;2.50;;;;;;;-0.99;52.94;100970.92;1750895;81;21207;-61
2021/03/09 09:40:58;;;;;;;5.60;2.40;;;;;;;-0.90;52.98;100977.16;1707270;81;22191;-60
2021/03/09 09:43:27;;;;;;;7.28;2.62;;;;;;;-0.86;53.17;100978.77;1730280;81;21203;-61
2021/03/09 09:46:00;;;;;;;6.75;2.60;;;;;;;-0.83;52.58;100976.58;1699241;82;21256;-63
2021/03/09 09:51:24;;;;;;;12.63;3.25;;;;;;;-0.81;50.98;100973.51;1872471;76;22718;-68
2021/03/09 09:53:52;;;;;;;8.35;3.42;;;;;;;-0.84;50.80;100983.91;1804178;77;21531;-66
2021/03/09 09:56:23;;;;;;;8.40;3.15;;;;;;;-0.79;50.79;100989.81;1808676;77;21131;-69
2021/03/09 09:58:58;;;;;;;7.65;3.20;;;;;;;-0.72;51.13;100986.23;1811092;77;21173;-68
2021/03/09 10:01:38;;;;;;;7.62;3.37;;;;;;;-0.69;51.34;100990.46;1846907;77;21044;-67
2021/03/09 10:04:10;;;;;;;14.55;3.60;;;;;;;-0.64;50.89;100988.19;1841465;77;21163;-66
2021/03/09 10:06:44;;;;;;;7.30;3.22;;;;;;;-0.58;50.74;100990.61;1846354;77;21128;-65
2021/03/09 10:09:23;;;;;;;10.00;3.90;;;;;;;-0.56;50.28;100994.45;1843995;77;21178;-70
2021/03/09 10:11:58;;;;;;;9.43;3.17;;;;;;;-0.59;50.52;100991.52;1846776;76;21123;-72
2021/03/09 10:14:33;;;;;;;9.25;4.33;;;;;;;-0.54;50.69;100990.09;1841972;76;21175;-71
2021/03/09 10:17:02;;;;;;;10.45;3.72;;;;;;;-0.54;50.19;100991.38;1846012;77;21293;-67
2021/03/09 10:19:40;;;;;;;8.38;3.10;;;;;;;-0.57;50.69;100991.48;1848418;76;21152;-67
2021/03/09 10:22:18;;;;;;;7.28;3.30;;;;;;;-0.60;51.39;101003.18;1849247;77;21167;-68
2021/03/09 10:24:46;;;;;;;8.68;3.40;;;;;;;-0.72;52.52;100996.56;1840524;77;21174;-67
2021/03/09 10:27:20;;;;;;;6.05;2.60;;;;;;;-0.83;51.96;100995.50;1841727;77;21663;-68
2021/03/09 10:29:50;;;;;;;6.08;1.70;;;;;;;-0.90;50.39;101007.33;1809844;77;21207;-66
2021/03/09 10:32:18;;;;;;;5.40;1.87;;;;;;;-0.94;49.58;101007.84;1813219;77;22294;-70
2021/03/09 10:34:48;;;;;;;5.40;2.20;;;;;;;-0.98;48.56;101013.48;1842197;77;21183;-67
2021/03/09 10:37:17;;;;;;;5.58;2.35;;;;;;;-0.99;49.26;101016.97;1780936;77;21727;-68
2021/03/09 10:39:58;;;;;;;6.25;2.55;;;;;;;-0.96;49.24;101019.91;1817759;77;21157;-69
2021/03/09 10:42:39;;;;;;;6.62;2.70;;;;;;;-0.94;49.58;101020.30;1810357;77;21166;-71
2021/03/09 10:45:26;;;;;;;6.55;2.20;;;;;;;-0.91;49.19;101014.66;1811381;77;21195;-67
2021/03/09 10:48:00;;;;;;;7.10;2.15;;;;;;;-0.91;49.01;101014.66;1815879;77;21215;-75
2021/03/09 10:50:32;;;;;;;6.33;2.00;;;;;;;-0.89;48.24;101014.17;1812443;77;21131;-67
2021/03/09 10:52:59;;;;;;;6.12;2.62;;;;;;;-0.89;47.92;101009.87;1817319;78;21171;-67
2021/03/09 10:55:27;;;;;;;7.05;3.15;;;;;;;-0.87;48.15;101018.44;1806848;77;22350;-67
2021/03/09 10:57:55;;;;;;;8.15;2.70;;;;;;;-0.87;48.15;101019.73;1811124;78;21171;-67
2021/03/09 11:00:23;;;;;;;7.42;3.15;;;;;;;-0.82;48.05;101019.18;1806611;77;21201;-66
2021/03/09 11:02:50;;;;;;;7.85;3.22;;;;;;;-0.77;47.87;101022.50;1818347;78;21622;-69
2021/03/09 11:05:18;;;;;;;6.12;2.67;;;;;;;-0.71;47.96;101020.21;1792597;77;21130;-71
2021/03/09 11:07:46;;;;;;;6.83;2.60;;;;;;;-0.66;48.33;101024.83;1790720;78;21577;-67
2021/03/09 11:10:16;;;;;;;6.03;3.02;;;;;;;-0.59;47.94;101021.23;1818675;78;21178;-67
2021/03/09 11:12:44;;;;;;;7.00;2.70;;;;;;;-0.49;47.97;101021.01;1791804;78;21204;-66
2021/03/09 11:15:14;;;;;;;5.95;1.82;;;;;;;-0.45;46.21;101019.61;1793796;78;21198;-67
2021/03/09 11:17:42;;;;;;;5.03;2.10;;;;;;;-0.38;44.58;101021.61;1814213;77;21194;-65
2021/03/09 11:20:32;;;;;;;4.55;1.70;;;;;;;-0.28;44.01;101024.82;1804785;78;21154;-65
2021/03/09 11:23:00;;;;;;;5.17;1.80;;;;;;;-0.23;42.74;101031.57;1733244;80;21193;-62
2021/03/09 11:25:29;;;;;;;7.95;1.98;;;;;;;-0.16;41.96;101025.80;1735771;81;21214;-63
2021/03/09 11:27:56;;;;;;;5.58;1.55;;;;;;;-0.06;41.55;101025.12;1723470;81;21260;-63
2021/03/09 11:30:25;;;;;;;5.87;2.10;;;;;;;0.08;41.68;101029.48;1730201;81;21153;-62
2021/03/09 11:32:53;;;;;;;5.00;1.65;;;;;;;0.25;41.67;101029.03;1744811;81;21231;-64
2021/03/09 11:35:22;;;;;;;5.42;2.05;;;;;;;0.41;41.66;101020.88;1728876;81;21169;-66
2021/03/09 11:37:49;;;;;;;4.28;1.70;;;;;;;0.52;41.38;101027.88;1727398;81;22190;-66
2021/03/09 11:40:18;;;;;;;7.25;2.92;;;;;;;0.58;41.00;101021.70;1721814;81;21206;-70
2021/03/09 11:42:48;;;;;;;5.15;2.00;;;;;;;0.57;40.96;101027.75;1725623;81;21130;-67
2021/03/09 11:45:17;;;;;;;6.20;1.98;;;;;;;0.54;40.78;101017.89;1728876;81;21613;-66
2021/03/09 11:47:45;;;;;;;5.05;2.17;;;;;;;0.43;40.20;101022.52;1733927;81;21197;-62
2021/03/09 11:50:14;;;;;;;4.95;2.27;;;;;;;0.23;41.46;101023.51;1723121;81;21298;-61
2021/03/09 11:52:43;;;;;;;7.30;2.22;;;;;;;0.06;42.49;101028.68;1727076;81;21752;-64